Time;durP1;ratioP1;P1;durP2;ratioP2;P2;SDS_P1;SDS_P2;PMS_P1;PMS_P2;Temp;Humidity;BMP_temperature;BMP_pressure;BME280_temperature;BME280_humidity;BME280_pressure;Samples;Min_cycle;Max_cycle;Signal;HPM_P1;HPM_P2
2023/06/28 00:00:07;;;;;;;8.50;3.60;;;15.80;1.00;;;;;;5068937;28;20407;-70
2023/06/28 00:02:35;;;;;;;8.68;3.50;;;15.80;1.00;;;;;;5048220;28;20433;-69
2023/06/28 00:05:08;;;;;;;7.07;3.30;;;15.80;1.00;;;;;;5045304;28;20410;-70
2023/06/28 00:07:34;;;;;;;8.88;3.63;;;15.80;1.00;;;;;;5047535;28;20971;-70
2023/06/28 00:10:00;;;;;;;10.80;3.58;;;15.80;1.00;;;;;;5064911;28;20420;-70
2023/06/28 00:12:29;;;;;;;9.47;3.27;;;15.70;1.00;;;;;;5036080;28;20437;-70
2023/06/28 00:14:54;;;;;;;8.45;3.47;;;15.70;1.00;;;;;;5047158;28;20449;-70
2023/06/28 00:17:27;;;;;;;9.13;3.37;;;15.70;21.20;;;;;;5047434;28;20502;-70
2023/06/28 00:19:59;;;;;;;10.17;3.70;;;15.70;13.50;;;;;;5048379;28;20408;-70
2023/06/28 00:22:34;;;;;;;8.38;3.20;;;15.70;48.30;;;;;;5036224;28;20409;-69
2023/06/28 00:25:04;;;;;;;10.45;3.85;;;15.60;51.30;;;;;;5050220;28;20774;-69
2023/06/28 00:27:31;;;;;;;10.93;4.00;;;15.70;99.90;;;;;;5047804;28;20467;-70
2023/06/28 00:29:57;;;;;;;11.27;3.87;;;15.70;99.90;;;;;;5068313;28;20407;-70
2023/06/28 00:32:23;;;;;;;8.50;3.15;;;15.60;99.90;;;;;;5050292;28;20443;-70
2023/06/28 00:34:49;;;;;;;11.10;4.10;;;15.60;99.90;;;;;;5049056;28;20409;-70
2023/06/28 00:37:15;;;;;;;12.30;3.83;;;15.60;99.90;;;;;;5046425;28;20428;-70
2023/06/28 00:39:41;;;;;;;8.70;3.85;;;15.60;99.90;;;;;;5048654;28;20408;-70
2023/06/28 00:42:07;;;;;;;8.52;2.92;;;15.60;99.90;;;;;;5042988;28;20843;-69
2023/06/28 00:44:33;;;;;;;11.27;4.00;;;15.60;99.90;;;;;;5020009;28;20484;-70
2023/06/28 00:47:01;;;;;;;9.40;3.72;;;15.60;99.90;;;;;;5048471;28;20484;-70
2023/06/28 00:49:30;;;;;;;10.50;3.40;;;15.50;99.90;;;;;;5037750;28;20942;-69
2023/06/28 00:51:56;;;;;;;10.03;3.60;;;15.50;99.90;;;;;;5043565;28;20528;-70
2023/06/28 00:54:25;;;;;;;9.32;3.30;;;15.40;99.90;;;;;;5048824;28;20467;-70
2023/06/28 00:56:51;;;;;;;7.97;3.28;;;15.40;99.90;;;;;;5049621;28;20412;-70
2023/06/28 00:59:17;;;;;;;9.97;3.70;;;15.50;99.90;;;;;;5068019;28;20500;-70
2023/06/28 01:01:43;;;;;;;9.00;3.75;;;15.40;99.90;;;;;;5049897;28;20419;-70
2023/06/28 01:04:09;;;;;;;9.90;3.70;;;15.40;99.90;;;;;;5058658;28;20410;-70
2023/06/28 01:06:37;;;;;;;9.15;3.83;;;15.40;99.90;;;;;;5028121;28;20421;-69
2023/06/28 01:09:10;;;;;;;9.13;3.87;;;15.40;99.90;;;;;;5046916;28;20806;-70
2023/06/28 01:11:37;;;;;;;9.27;3.42;;;15.40;1.00;;;;;;5046024;28;21736;-71
2023/06/28 01:14:04;;;;;;;8.25;3.90;;;15.40;1.00;;;;;;5043514;28;20480;-70
2023/06/28 01:16:30;;;;;;;9.93;3.78;;;15.40;1.00;;;;;;5063791;28;20400;-70
2023/06/28 01:18:56;;;;;;;11.32;4.00;;;15.40;1.00;;;;;;5045826;28;20413;-70
2023/06/28 01:21:28;;;;;;;9.93;3.58;;;15.40;1.00;;;;;;5064650;28;20457;-70
2023/06/28 01:23:54;;;;;;;7.05;3.65;;;15.40;1.00;;;;;;5046306;28;20902;-69
2023/06/28 01:26:20;;;;;;;10.95;3.65;;;15.40;1.00;;;;;;5043134;28;20411;-70
2023/06/28 01:28:47;;;;;;;11.52;4.05;;;15.40;1.00;;;;;;5059160;28;20925;-70
2023/06/28 01:31:13;;;;;;;8.80;3.95;;;15.40;1.00;;;;;;5033487;28;20504;-70
2023/06/28 01:33:41;;;;;;;8.97;3.67;;;15.40;1.00;;;;;;5053691;28;20512;-70
2023/06/28 01:36:08;;;;;;;8.23;3.45;;;15.40;1.00;;;;;;5045723;28;20499;-70
2023/06/28 01:38:38;;;;;;;11.73;3.80;;;15.40;1.00;;;;;;5021545;28;20436;-70
2023/06/28 01:41:05;;;;;;;8.27;3.63;;;15.40;1.00;;;;;;5046182;28;20405;-70
2023/06/28 01:43:31;;;;;;;9.67;3.80;;;15.40;5.30;;;;;;5044765;28;20778;-70
2023/06/28 01:45:57;;;;;;;12.30;4.18;;;15.40;5.90;;;;;;5045479;28;20405;-70
2023/06/28 01:48:23;;;;;;;7.60;3.85;;;15.40;11.80;;;;;;5041461;28;20408;-70
2023/06/28 01:50:49;;;;;;;7.77;3.70;;;15.40;26.70;;;;;;5049011;28;20453;-70
2023/06/28 01:53:16;;;;;;;9.05;3.70;;;15.40;43.10;;;;;;5029207;28;20918;-70
2023/06/28 01:55:42;;;;;;;8.48;4.13;;;15.40;47.70;;;;;;5066423;28;20923;-70
2023/06/28 01:58:07;;;;;;;8.40;3.95;;;15.40;41.20;;;;;;5038519;28;20405;-70
2023/06/28 02:00:33;;;;;;;7.83;3.80;;;15.40;54.20;;;;;;5048452;28;20411;-70
2023/06/28 02:02:58;;;;;;;10.45;4.47;;;15.30;68.40;;;;;;5065348;28;20445;-70
2023/06/28 02:05:24;;;;;;;9.97;4.37;;;15.30;74.50;;;;;;5066853;28;20935;-70
2023/06/28 02:07:50;;;;;;;8.60;3.97;;;15.30;63.40;;;;;;5047352;28;20406;-71
2023/06/28 02:10:18;;;;;;;10.57;4.23;;;15.30;66.30;;;;;;5066522;28;20404;-70
2023/06/28 02:12:43;;;;;;;13.82;4.50;;;15.30;84.30;;;;;;5040164;28;20481;-70
2023/06/28 02:15:10;;;;;;;10.27;3.80;;;15.30;97.90;;;;;;5045093;28;20413;-70
2023/06/28 02:17:36;;;;;;;8.88;4.32;;;15.30;99.90;;;;;;5048376;28;20770;-70
2023/06/28 02:20:04;;;;;;;9.70;4.00;;;15.30;99.90;;;;;;5047316;28;20514;-70
2023/06/28 02:22:29;;;;;;;10.07;4.65;;;15.30;99.90;;;;;;5029084;28;20811;-70
2023/06/28 02:24:55;;;;;;;12.30;4.47;;;15.20;99.90;;;;;;5043142;28;20416;-70
2023/06/28 02:27:21;;;;;;;8.65;4.38;;;15.20;99.90;;;;;;5045600;28;20452;-70
2023/06/28 02:29:46;;;;;;;8.90;4.63;;;15.20;99.90;;;;;;5042154;28;20415;-70
2023/06/28 02:32:12;;;;;;;9.98;4.22;;;15.30;99.90;;;;;;5047927;28;20958;-70
2023/06/28 02:34:37;;;;;;;11.57;4.20;;;15.20;99.90;;;;;;5044673;28;20471;-70
2023/06/28 02:37:03;;;;;;;11.88;4.63;;;15.30;99.90;;;;;;5066439;28;20496;-70
2023/06/28 02:39:29;;;;;;;11.70;4.50;;;15.20;99.90;;;;;;5049484;28;20413;-70
2023/06/28 02:41:55;;;;;;;12.38;4.63;;;15.30;99.90;;;;;;5047770;28;20911;-70
2023/06/28 02:44:20;;;;;;;12.00;4.23;;;15.30;99.90;;;;;;5033944;28;20416;-70
2023/06/28 02:46:46;;;;;;;13.77;4.63;;;15.30;99.90;;;;;;5059847;28;20921;-70
2023/06/28 02:49:12;;;;;;;9.82;4.18;;;15.20;99.90;;;;;;5049195;28;20424;-70
2023/06/28 02:51:37;;;;;;;10.43;4.75;;;15.30;99.90;;;;;;5050556;28;20407;-70
2023/06/28 02:54:03;;;;;;;13.50;5.30;;;15.20;99.90;;;;;;5032464;28;20972;-70
2023/06/28 02:56:29;;;;;;;9.95;4.53;;;15.20;99.90;;;;;;5030132;28;20413;-70
2023/06/28 02:58:54;;;;;;;11.53;4.80;;;15.20;99.90;;;;;;5051219;28;20407;-70
2023/06/28 03:01:20;;;;;;;9.30;4.13;;;15.20;99.90;;;;;;5048115;28;20503;-70
2023/06/28 03:03:47;;;;;;;9.33;4.40;;;15.20;99.90;;;;;;5040595;28;20421;-70
2023/06/28 03:06:14;;;;;;;11.25;5.03;;;15.30;99.90;;;;;;5046601;28;20408;-70
2023/06/28 03:08:40;;;;;;;8.85;4.38;;;15.30;99.90;;;;;;5068928;28;20408;-70
2023/06/28 03:11:07;;;;;;;9.05;4.40;;;15.30;99.90;;;;;;5048469;28;20442;-70
2023/06/28 03:13:33;;;;;;;12.32;4.72;;;15.30;99.90;;;;;;5052327;28;20431;-70
2023/06/28 03:15:59;;;;;;;8.95;4.28;;;15.30;99.90;;;;;;5048460;28;20934;-70
2023/06/28 03:18:24;;;;;;;8.75;3.65;;;15.30;99.90;;;;;;5039837;28;20405;-70
2023/06/28 03:20:50;;;;;;;9.23;4.13;;;15.30;99.90;;;;;;5068463;28;20422;-70
2023/06/28 03:23:16;;;;;;;12.10;4.10;;;15.40;99.90;;;;;;5037713;28;20497;-70
2023/06/28 03:25:41;;;;;;;9.77;4.13;;;15.40;99.90;;;;;;5049508;28;20420;-70
2023/06/28 03:28:07;;;;;;;8.43;4.38;;;15.40;99.90;;;;;;5034125;28;20495;-70
2023/06/28 03:30:33;;;;;;;8.15;3.70;;;15.40;99.90;;;;;;5031727;28;20421;-70
2023/06/28 03:32:59;;;;;;;11.40;4.07;;;15.40;99.90;;;;;;5037383;28;20528;-70
2023/06/28 03:35:24;;;;;;;8.57;3.87;;;15.40;99.90;;;;;;5049905;28;20490;-70
2023/06/28 03:37:54;;;;;;;9.60;4.30;;;15.50;99.90;;;;;;5046144;28;20409;-70
2023/06/28 03:40:21;;;;;;;12.02;4.50;;;15.50;99.90;;;;;;5048975;28;20415;-70
2023/06/28 03:42:47;;;;;;;12.65;4.30;;;15.50;99.90;;;;;;5051689;28;20415;-70
2023/06/28 03:45:14;;;;;;;12.40;4.27;;;15.50;99.90;;;;;;5051072;28;20410;-70
2023/06/28 03:47:40;;;;;;;9.02;3.80;;;15.50;99.90;;;;;;5049331;28;20447;-70
2023/06/28 03:50:06;;;;;;;10.43;3.90;;;15.50;99.90;;;;;;5064530;28;20442;-70
2023/06/28 03:52:32;;;;;;;11.48;4.22;;;15.60;99.90;;;;;;5040252;28;20465;-70
2023/06/28 03:54:57;;;;;;;9.20;3.85;;;15.60;99.90;;;;;;5049624;28;20409;-70
2023/06/28 03:57:23;;;;;;;10.80;4.05;;;15.60;99.90;;;;;;5048089;28;20402;-70
2023/06/28 03:59:49;;;;;;;10.75;4.20;;;15.60;99.90;;;;;;5047482;28;21002;-70
2023/06/28 04:02:14;;;;;;;9.10;3.77;;;15.60;99.90;;;;;;5047652;28;20405;-70
2023/06/28 04:04:40;;;;;;;12.38;3.90;;;15.60;99.90;;;;;;5048647;28;20400;-70
2023/06/28 04:07:06;;;;;;;8.27;4.18;;;15.60;99.90;;;;;;5042825;28;20412;-70
2023/06/28 04:09:32;;;;;;;10.55;4.00;;;15.60;99.90;;;;;;5059619;28;20499;-70
2023/06/28 04:11:57;;;;;;;11.15;4.10;;;15.70;99.90;;;;;;5050384;28;20431;-70
2023/06/28 04:14:24;;;;;;;11.10;4.10;;;15.70;99.90;;;;;;5068186;28;20403;-69
2023/06/28 04:16:51;;;;;;;12.43;3.90;;;15.80;99.90;;;;;;5051139;28;20434;-70
2023/06/28 04:19:16;;;;;;;8.48;4.03;;;15.70;99.90;;;;;;5048912;28;20420;-70
2023/06/28 04:21:42;;;;;;;10.07;4.18;;;15.80;99.90;;;;;;5042445;28;20410;-70
2023/06/28 04:24:07;;;;;;;8.77;3.83;;;15.80;99.90;;;;;;5050096;28;20495;-70
2023/06/28 04:26:33;;;;;;;10.23;4.43;;;15.80;99.90;;;;;;5046545;28;21018;-70
2023/06/28 04:28:59;;;;;;;9.20;3.97;;;15.80;99.90;;;;;;5040310;28;20758;-70
2023/06/28 04:31:25;;;;;;;10.00;4.17;;;15.80;99.90;;;;;;5067634;28;20396;-70
2023/06/28 04:33:51;;;;;;;9.45;3.60;;;15.80;99.90;;;;;;5032327;28;20490;-70
2023/06/28 04:36:21;;;;;;;9.87;4.00;;;15.80;99.90;;;;;;5049703;28;20410;-70
2023/06/28 04:38:54;;;;;;;8.55;3.90;;;15.90;99.90;;;;;;5047604;28;20403;-70
2023/06/28 04:41:26;;;;;;;8.68;3.88;;;15.90;99.90;;;;;;5050164;28;20423;-70
2023/06/28 04:43:56;;;;;;;11.68;4.18;;;15.90;99.90;;;;;;5043334;28;20425;-70
2023/06/28 04:46:22;;;;;;;10.43;4.43;;;15.90;99.90;;;;;;5041974;28;20409;-70
2023/06/28 04:48:48;;;;;;;11.85;4.60;;;15.90;99.90;;;;;;5034730;28;20417;-70
2023/06/28 04:51:14;;;;;;;12.45;4.50;;;15.90;99.90;;;;;;5016901;28;20503;-70
2023/06/28 04:53:39;;;;;;;11.90;4.40;;;15.90;99.90;;;;;;5067767;28;20431;-70
2023/06/28 04:56:05;;;;;;;12.32;4.60;;;15.90;99.90;;;;;;5048134;28;20409;-70
2023/06/28 04:58:33;;;;;;;12.13;4.70;;;16.00;99.90;;;;;;5044586;28;20413;-70
2023/06/28 05:00:58;;;;;;;7.75;4.18;;;16.10;99.90;;;;;;5045132;28;20503;-70
2023/06/28 05:03:27;;;;;;;8.93;4.47;;;16.10;99.90;;;;;;5046812;28;21006;-70
2023/06/28 05:05:56;;;;;;;10.73;4.60;;;16.10;99.90;;;;;;5045008;28;21148;-70
2023/06/28 05:08:22;;;;;;;11.40;4.33;;;16.10;99.90;;;;;;5032818;28;20493;-70
2023/06/28 05:10:47;;;;;;;9.95;4.28;;;16.10;99.90;;;;;;5035764;28;20836;-70
2023/06/28 05:13:13;;;;;;;8.77;4.20;;;16.10;99.90;;;;;;5044352;28;20459;-70
2023/06/28 05:15:39;;;;;;;11.50;4.68;;;16.10;99.90;;;;;;5063799;28;20427;-70
2023/06/28 05:18:04;;;;;;;7.43;3.77;;;16.10;99.90;;;;;;5046307;28;20417;-70
2023/06/28 05:20:31;;;;;;;7.38;4.00;;;16.10;99.90;;;;;;5045763;28;20541;-69
2023/06/28 05:23:17;;;;;;;9.48;3.80;;;16.10;99.90;;;;;;5054568;28;20399;-68
2023/06/28 05:25:44;;;;;;;9.30;4.22;;;16.10;99.90;;;;;;5049784;28;20443;-68
2023/06/28 05:28:11;;;;;;;7.75;3.65;;;16.10;99.90;;;;;;5031584;28;20450;-68
2023/06/28 05:30:37;;;;;;;8.82;3.58;;;16.10;99.90;;;;;;5042024;28;20403;-68
2023/06/28 05:33:03;;;;;;;6.82;3.70;;;16.20;99.90;;;;;;5058201;28;20428;-68
2023/06/28 05:35:33;;;;;;;7.47;3.08;;;16.20;99.90;;;;;;5046483;28;20915;-68
2023/06/28 05:38:00;;;;;;;6.75;3.15;;;16.20;99.90;;;;;;5041402;28;20928;-69
2023/06/28 05:40:30;;;;;;;9.02;3.70;;;16.30;99.90;;;;;;5047462;28;20396;-69
2023/06/28 05:42:58;;;;;;;9.02;3.20;;;16.30;99.90;;;;;;5046458;28;20484;-69
2023/06/28 05:45:28;;;;;;;7.57;2.88;;;16.30;99.90;;;;;;5049240;28;20407;-69
2023/06/28 05:47:54;;;;;;;7.80;3.20;;;16.30;99.90;;;;;;5066752;28;20747;-69
2023/06/28 05:50:21;;;;;;;5.38;3.05;;;16.30;99.90;;;;;;5042575;28;20518;-69
2023/06/28 05:52:47;;;;;;;8.93;3.33;;;16.40;99.90;;;;;;5061201;28;20428;-69
2023/06/28 05:55:13;;;;;;;8.48;3.35;;;16.40;99.90;;;;;;5045975;28;20433;-69
2023/06/28 05:57:40;;;;;;;8.55;3.55;;;16.40;99.90;;;;;;5043706;28;20424;-69
2023/06/28 06:00:07;;;;;;;8.82;3.20;;;16.40;99.90;;;;;;5049469;28;20400;-69
2023/06/28 06:02:33;;;;;;;6.38;2.92;;;16.40;99.90;;;;;;5047430;28;21001;-69
2023/06/28 06:04:59;;;;;;;6.28;2.97;;;16.40;99.90;;;;;;5045979;28;20410;-68
2023/06/28 06:07:25;;;;;;;6.78;2.97;;;16.50;99.90;;;;;;5051544;28;20397;-69
2023/06/28 06:09:53;;;;;;;5.72;2.78;;;16.50;99.90;;;;;;5045911;28;20474;-69
2023/06/28 06:12:18;;;;;;;10.20;3.50;;;16.60;99.90;;;;;;5065448;28;20945;-69
2023/06/28 06:14:44;;;;;;;74.43;11.40;;;16.70;99.90;;;;;;5048267;28;20416;-69
2023/06/28 06:17:09;;;;;;;100.95;11.93;;;16.70;99.90;;;;;;5047989;28;20452;-69
2023/06/28 06:19:35;;;;;;;15.37;3.80;;;16.70;99.90;;;;;;5049387;28;20402;-69
2023/06/28 06:22:01;;;;;;;10.38;3.17;;;16.80;99.90;;;;;;5028552;28;20405;-69
2023/06/28 06:24:27;;;;;;;7.13;2.73;;;16.80;99.90;;;;;;5067884;28;20395;-69
2023/06/28 06:26:52;;;;;;;6.28;2.90;;;16.90;99.90;;;;;;5050830;28;21159;-69
2023/06/28 06:29:18;;;;;;;6.67;2.70;;;17.00;99.90;;;;;;5019547;28;20424;-69
2023/06/28 06:31:43;;;;;;;6.22;2.40;;;17.00;99.90;;;;;;5045713;28;20906;-69
2023/06/28 06:34:09;;;;;;;5.67;2.37;;;17.00;99.90;;;;;;5051507;28;20403;-69
2023/06/28 06:36:36;;;;;;;5.70;2.60;;;17.00;99.90;;;;;;5050084;28;20406;-69
2023/06/28 06:39:02;;;;;;;5.63;2.38;;;17.10;99.90;;;;;;5069569;28;20403;-69
2023/06/28 06:41:27;;;;;;;5.28;2.25;;;17.10;99.90;;;;;;5070352;28;20402;-69
2023/06/28 06:43:53;;;;;;;7.65;2.13;;;17.20;99.90;;;;;;5049083;28;20518;-69
2023/06/28 06:46:20;;;;;;;4.93;2.20;;;17.20;99.90;;;;;;5064431;28;20441;-69
2023/06/28 06:48:47;;;;;;;7.18;2.20;;;17.30;99.90;;;;;;5049067;28;20451;-69
2023/06/28 06:51:12;;;;;;;5.57;1.88;;;17.30;99.90;;;;;;5046660;28;20396;-69
2023/06/28 06:53:38;;;;;;;5.90;2.40;;;17.40;99.90;;;;;;5049121;28;20483;-69
2023/06/28 06:56:04;;;;;;;5.70;2.58;;;17.40;99.90;;;;;;5046647;28;20818;-69
2023/06/28 06:58:30;;;;;;;4.45;2.28;;;17.40;99.90;;;;;;5048791;28;20493;-69
2023/06/28 07:00:56;;;;;;;4.88;1.95;;;17.40;99.90;;;;;;5064462;28;20486;-69
2023/06/28 07:03:21;;;;;;;6.57;2.17;;;17.40;99.90;;;;;;5035581;28;20399;-69
2023/06/28 07:05:47;;;;;;;5.70;2.10;;;17.50;99.90;;;;;;5049953;28;20467;-69
2023/06/28 07:08:13;;;;;;;4.50;1.90;;;17.50;99.90;;;;;;5051624;28;20457;-69
2023/06/28 07:10:38;;;;;;;4.75;1.70;;;17.50;99.90;;;;;;5069059;28;20395;-70
2023/06/28 07:13:04;;;;;;;5.60;1.97;;;17.50;99.90;;;;;;5047223;28;20477;-69
2023/06/28 07:15:29;;;;;;;5.90;2.20;;;17.50;99.90;;;;;;5043329;28;20769;-69
2023/06/28 07:17:55;;;;;;;5.87;1.80;;;17.60;99.90;;;;;;5069333;28;20482;-69
2023/06/28 07:20:21;;;;;;;6.30;2.17;;;17.60;99.90;;;;;;5049732;28;20913;-69
2023/06/28 07:22:47;;;;;;;6.90;2.33;;;17.60;99.90;;;;;;5047503;28;20409;-69
2023/06/28 07:25:13;;;;;;;6.63;2.45;;;17.70;99.90;;;;;;5046454;28;20412;-69
2023/06/28 07:27:38;;;;;;;6.65;2.33;;;17.70;99.90;;;;;;5050525;28;20434;-69
2023/06/28 07:30:06;;;;;;;6.33;2.10;;;17.70;99.90;;;;;;5069328;28;20897;-69
2023/06/28 07:32:31;;;;;;;7.03;2.53;;;17.80;99.90;;;;;;5049759;28;20949;-69
2023/06/28 07:34:57;;;;;;;4.78;2.50;;;17.80;99.90;;;;;;5050049;28;20536;-69
2023/06/28 07:37:23;;;;;;;6.70;2.50;;;17.80;99.90;;;;;;5046147;28;20410;-69
2023/06/28 07:39:48;;;;;;;7.20;2.60;;;17.80;96.70;;;;;;5032461;28;20413;-69
2023/06/28 07:42:14;;;;;;;6.22;2.38;;;17.80;99.90;;;;;;5036901;28;20435;-69
2023/06/28 07:44:40;;;;;;;6.43;2.58;;;17.90;99.90;;;;;;5045144;28;20400;-69
2023/06/28 07:47:06;;;;;;;6.77;3.17;;;17.90;99.90;;;;;;5043738;28;20409;-69
2023/06/28 07:49:31;;;;;;;7.82;3.25;;;17.90;99.90;;;;;;5042987;28;20484;-70
2023/06/28 07:51:58;;;;;;;7.40;3.20;;;18.00;99.90;;;;;;5047312;28;20430;-69
2023/06/28 07:54:24;;;;;;;8.48;4.22;;;18.00;99.90;;;;;;5063127;28;20412;-69
2023/06/28 07:56:50;;;;;;;9.10;4.18;;;18.00;99.90;;;;;;5047930;28;20405;-69
2023/06/28 07:59:17;;;;;;;8.70;4.07;;;18.00;93.90;;;;;;5044912;28;20430;-69
2023/06/28 08:01:43;;;;;;;7.95;4.80;;;18.10;99.90;;;;;;5039818;28;20898;-69
2023/06/28 08:04:08;;;;;;;9.52;4.90;;;18.10;99.90;;;;;;5048318;28;20396;-69
2023/06/28 08:06:34;;;;;;;9.07;4.60;;;18.20;99.90;;;;;;5048245;28;20802;-69
2023/06/28 08:09:00;;;;;;;9.57;4.73;;;18.20;99.90;;;;;;5044883;28;20433;-69
2023/06/28 08:11:26;;;;;;;9.13;4.47;;;18.20;99.90;;;;;;5068405;28;20404;-69
2023/06/28 08:13:52;;;;;;;9.02;5.05;;;18.20;99.90;;;;;;5047711;28;20997;-69
2023/06/28 08:16:18;;;;;;;9.10;4.22;;;18.30;99.90;;;;;;5068561;28;20398;-69
2023/06/28 08:18:44;;;;;;;7.40;3.97;;;18.30;99.90;;;;;;5040352;28;20409;-69
2023/06/28 08:21:09;;;;;;;7.67;4.07;;;18.40;99.90;;;;;;5047166;28;20775;-69
2023/06/28 08:23:36;;;;;;;8.27;4.10;;;18.30;99.90;;;;;;5042038;28;20752;-69
2023/06/28 08:26:02;;;;;;;10.63;4.37;;;18.40;99.90;;;;;;5047137;28;20410;-69
2023/06/28 08:28:27;;;;;;;8.70;4.50;;;18.30;99.90;;;;;;5063452;28;20408;-69
2023/06/28 08:30:53;;;;;;;10.88;4.75;;;18.30;99.90;;;;;;5064522;28;20397;-69
2023/06/28 08:33:19;;;;;;;9.43;4.50;;;18.20;99.90;;;;;;5041190;28;20451;-69
2023/06/28 08:35:44;;;;;;;8.73;4.70;;;18.20;99.90;;;;;;5049146;28;20454;-69
2023/06/28 08:38:11;;;;;;;8.07;4.80;;;18.20;99.90;;;;;;5045121;28;20409;-69
2023/06/28 08:40:37;;;;;;;11.27;5.13;;;18.20;99.90;;;;;;5046938;28;20957;-69
2023/06/28 08:43:04;;;;;;;9.67;5.13;;;18.20;99.90;;;;;;5062019;28;20407;-69
2023/06/28 08:45:36;;;;;;;10.68;5.25;;;18.10;99.90;;;;;;5033552;28;20448;-69
2023/06/28 08:48:03;;;;;;;11.03;5.40;;;18.10;99.90;;;;;;5048524;28;20455;-69
2023/06/28 08:50:28;;;;;;;11.65;5.20;;;18.10;99.90;;;;;;5046706;28;20934;-69
2023/06/28 08:52:56;;;;;;;12.18;5.45;;;18.20;99.90;;;;;;5045402;28;20486;-69
2023/06/28 08:55:23;;;;;;;9.73;5.30;;;18.30;99.90;;;;;;5046793;28;20413;-69
2023/06/28 08:57:49;;;;;;;9.82;5.20;;;18.20;99.90;;;;;;5029067;28;20441;-69
2023/06/28 09:00:15;;;;;;;8.77;5.40;;;18.20;99.90;;;;;;5046516;28;20448;-69
2023/06/28 09:02:43;;;;;;;11.07;5.65;;;18.20;99.90;;;;;;5052569;28;20999;-69
2023/06/28 09:05:09;;;;;;;10.30;5.38;;;18.20;99.90;;;;;;5048711;28;20435;-69
2023/06/28 09:07:40;;;;;;;8.63;5.33;;;18.20;99.90;;;;;;5049159;28;20395;-69
2023/06/28 09:10:09;;;;;;;9.48;5.72;;;18.20;99.90;;;;;;5036453;28;20480;-69
2023/06/28 09:12:36;;;;;;;11.88;5.93;;;18.30;99.90;;;;;;5034758;28;20440;-69
2023/06/28 09:15:05;;;;;;;10.00;5.25;;;18.30;99.90;;;;;;5045438;28;20405;-69
2023/06/28 09:17:31;;;;;;;10.63;5.90;;;18.40;99.90;;;;;;5048099;28;20404;-69
2023/06/28 09:20:03;;;;;;;11.10;6.20;;;18.40;99.90;;;;;;5031879;28;20408;-69
2023/06/28 09:22:29;;;;;;;11.35;6.38;;;18.30;99.90;;;;;;5036798;28;20411;-69
2023/06/28 09:25:00;;;;;;;9.85;6.45;;;18.40;99.90;;;;;;5038796;28;21034;-69
2023/06/28 09:27:29;;;;;;;10.60;6.35;;;18.40;99.90;;;;;;5047878;28;20419;-69
2023/06/28 09:30:02;;;;;;;10.60;6.30;;;18.40;99.90;;;;;;5048585;28;20417;-69
2023/06/28 09:32:39;;;;;;;9.23;6.57;;;18.40;99.90;;;;;;5043003;28;20490;-69
2023/06/28 09:35:10;;;;;;;10.77;6.50;;;18.40;99.90;;;;;;5036840;28;20452;-69
2023/06/28 09:37:38;;;;;;;8.70;5.88;;;18.40;99.90;;;;;;5047956;28;20435;-69
2023/06/28 09:40:08;;;;;;;8.50;5.53;;;18.50;1.00;;;;;;5048859;28;20961;-69
2023/06/28 09:42:44;;;;;;;10.07;5.60;;;18.50;1.00;;;;;;5019559;28;20482;-69
2023/06/28 09:45:22;;;;;;;9.23;5.95;;;18.70;99.90;;;;;;5050022;28;20408;-69
2023/06/28 09:48:00;;;;;;;10.90;6.20;;;18.70;99.90;;;;;;5044134;28;20755;-69
2023/06/28 09:50:41;;;;;;;9.40;6.13;;;18.80;1.00;;;;;;5051962;28;20410;-69
2023/06/28 09:53:12;;;;;;;8.85;5.85;;;18.90;1.00;;;;;;5070983;28;20435;-69
2023/06/28 09:55:40;;;;;;;8.35;5.55;;;19.00;99.90;;;;;;5046437;28;21093;-69
2023/06/28 09:58:11;;;;;;;9.95;6.22;;;19.00;99.90;;;;;;5033487;28;20577;-69
2023/06/28 10:00:41;;;;;;;9.88;6.28;;;19.00;99.90;;;;;;5050497;28;20772;-69
2023/06/28 10:03:09;;;;;;;10.88;6.57;;;19.00;99.90;;;;;;5052288;28;20883;-69
2023/06/28 10:05:39;;;;;;;10.52;6.05;;;19.10;99.90;;;;;;5053577;28;20773;-70
2023/06/28 10:08:10;;;;;;;10.43;6.00;;;19.00;99.90;;;;;;5041384;28;20923;-69
2023/06/28 10:10:37;;;;;;;10.02;6.00;;;19.10;99.90;;;;;;5045142;28;20474;-69
2023/06/28 10:13:05;;;;;;;9.32;6.20;;;19.00;99.90;;;;;;5052233;28;20443;-69
2023/06/28 10:15:42;;;;;;;10.32;6.40;;;19.00;99.90;;;;;;5044763;28;20401;-69
2023/06/28 10:18:08;;;;;;;11.00;6.55;;;19.10;99.90;;;;;;5049389;28;20409;-69
2023/06/28 10:20:37;;;;;;;12.25;6.78;;;19.10;99.90;;;;;;5048716;28;20777;-69
2023/06/28 10:23:05;;;;;;;11.48;6.68;;;19.10;99.90;;;;;;5048234;28;20401;-70
2023/06/28 10:25:32;;;;;;;9.80;6.33;;;19.00;1.00;;;;;;5056445;28;20409;-69
2023/06/28 10:27:59;;;;;;;10.63;6.45;;;19.00;1.00;;;;;;5047526;28;20409;-69
2023/06/28 10:30:25;;;;;;;9.52;5.95;;;19.00;1.00;;;;;;5050443;28;20499;-70
2023/06/28 10:32:53;;;;;;;10.18;6.50;;;19.00;1.00;;;;;;5049478;28;20461;-69
2023/06/28 10:35:19;;;;;;;10.55;6.68;;;19.00;1.00;;;;;;5044070;28;20423;-69
2023/06/28 10:37:46;;;;;;;9.30;6.13;;;19.10;1.00;;;;;;5042313;28;20499;-69
2023/06/28 10:40:12;;;;;;;9.65;5.75;;;19.10;1.00;;;;;;5045777;28;20455;-69
2023/06/28 10:42:39;;;;;;;7.70;5.28;;;19.10;1.00;;;;;;5049490;28;20397;-69
2023/06/28 10:45:06;;;;;;;7.88;5.20;;;19.10;1.00;;;;;;5049745;28;20457;-69
2023/06/28 10:47:37;;;;;;;9.27;6.22;;;19.20;1.00;;;;;;5048326;28;20433;-69
2023/06/28 10:50:08;;;;;;;9.60;6.55;;;19.10;1.00;;;;;;5050301;28;20407;-69
2023/06/28 10:52:34;;;;;;;10.90;7.07;;;19.20;1.00;;;;;;5043770;28;20437;-69
2023/06/28 10:55:02;;;;;;;9.65;6.47;;;19.10;1.00;;;;;;5050925;28;20453;-69
2023/06/28 10:57:38;;;;;;;10.32;7.07;;;19.10;1.00;;;;;;5051940;28;20412;-70
2023/06/28 11:00:28;;;;;;;10.80;6.90;;;19.10;1.00;;;;;;5039035;28;20771;-69
2023/06/28 11:02:59;;;;;;;10.05;7.35;;;19.10;1.00;;;;;;5049451;28;20512;-70
2023/06/28 11:05:53;;;;;;;10.60;7.35;;;19.10;1.00;;;;;;5051667;28;20404;-69
2023/06/28 11:08:21;;;;;;;9.37;7.13;;;19.10;1.00;;;;;;5037777;28;20500;-69
2023/06/28 11:10:54;;;;;;;9.97;7.57;;;19.10;1.00;;;;;;5045578;28;20430;-69
2023/06/28 11:13:38;;;;;;;8.57;7.30;;;19.10;1.00;;;;;;5069439;28;20443;-69
2023/06/28 11:16:13;;;;;;;11.15;7.97;;;19.10;99.90;;;;;;5035314;28;20453;-69
2023/06/28 11:18:38;;;;;;;10.00;7.80;;;19.10;99.90;;;;;;5048931;28;20445;-69
2023/06/28 11:21:05;;;;;;;12.03;8.27;;;19.10;1.00;;;;;;5069441;28;20428;-69
2023/06/28 11:23:42;;;;;;;11.55;8.65;;;19.20;1.00;;;;;;5069583;28;20960;-69
2023/06/28 11:26:12;;;;;;;11.95;9.32;;;19.20;1.00;;;;;;5034266;28;20826;-69
2023/06/28 11:28:50;;;;;;;13.88;9.55;;;19.30;1.00;;;;;;5048218;28;20408;-69
2023/06/28 11:31:20;;;;;;;12.77;9.23;;;19.20;1.00;;;;;;5036237;28;20492;-69
2023/06/28 11:33:48;;;;;;;12.27;9.13;;;19.30;1.00;;;;;;5047043;28;20441;-69
2023/06/28 11:36:14;;;;;;;12.40;9.30;;;19.20;99.90;;;;;;5045379;28;20417;-69
2023/06/28 11:38:46;;;;;;;12.98;9.98;;;19.20;99.90;;;;;;5065809;28;20943;-69
2023/06/28 11:41:16;;;;;;;13.32;9.13;;;19.10;99.90;;;;;;5041732;28;20409;-69
2023/06/28 11:43:44;;;;;;;14.10;9.93;;;19.10;99.90;;;;;;5035900;28;20424;-70
2023/06/28 11:46:14;;;;;;;13.52;9.63;;;19.10;1.00;;;;;;5062274;28;20420;-70
2023/06/28 11:48:40;;;;;;;15.50;10.20;;;19.10;1.00;;;;;;5051351;28;20774;-70
2023/06/28 11:51:06;;;;;;;16.27;10.60;;;19.00;1.00;;;;;;5031596;28;20404;-69
2023/06/28 11:53:31;;;;;;;17.27;11.38;;;19.00;1.00;;;;;;5068922;28;20463;-69
2023/06/28 11:55:58;;;;;;;16.48;10.90;;;19.00;1.00;;;;;;5048239;28;20433;-69
2023/06/28 11:58:30;;;;;;;15.70;11.35;;;18.90;1.00;;;;;;5031071;28;20401;-69
2023/06/28 12:00:57;;;;;;;17.83;11.85;;;18.90;1.00;;;;;;5050725;28;20422;-70
2023/06/28 12:03:34;;;;;;;19.03;12.70;;;18.90;1.00;;;;;;5050670;28;20403;-70
2023/06/28 12:06:01;;;;;;;17.95;12.77;;;18.80;1.00;;;;;;5050529;28;20899;-69
2023/06/28 12:08:32;;;;;;;18.25;12.15;;;18.80;1.00;;;;;;5034454;28;20810;-69
2023/06/28 12:10:59;;;;;;;20.92;13.02;;;18.80;1.00;;;;;;5045439;28;20434;-70
2023/06/28 12:13:24;;;;;;;18.45;13.02;;;18.80;1.00;;;;;;5068837;28;20442;-69
2023/06/28 12:15:52;;;;;;;20.00;13.63;;;18.80;1.00;;;;;;5046497;28;20916;-69
2023/06/28 12:18:18;;;;;;;19.95;13.95;;;18.70;1.00;;;;;;5037474;28;20417;-69
2023/06/28 12:20:43;;;;;;;19.87;14.40;;;18.70;1.00;;;;;;5031131;28;20403;-70
2023/06/28 12:23:13;;;;;;;20.65;14.07;;;18.70;1.00;;;;;;5047333;28;20397;-70
2023/06/28 12:25:43;;;;;;;19.58;14.20;;;18.70;1.00;;;;;;5044420;28;20396;-70
2023/06/28 12:28:12;;;;;;;22.23;15.70;;;18.70;1.00;;;;;;5025391;28;20415;-70
2023/06/28 12:30:38;;;;;;;21.95;15.35;;;18.80;1.00;;;;;;5048546;28;20405;-69
2023/06/28 12:33:08;;;;;;;21.93;15.23;;;18.80;1.00;;;;;;5047607;28;20436;-70
2023/06/28 12:35:34;;;;;;;24.23;15.52;;;18.80;1.00;;;;;;5038968;28;20440;-69
2023/06/28 12:38:02;;;;;;;20.35;14.68;;;18.80;1.00;;;;;;5045323;28;20410;-69
2023/06/28 12:40:31;;;;;;;22.40;15.90;;;18.80;1.00;;;;;;5045512;28;20406;-70
2023/06/28 12:43:17;;;;;;;23.35;16.10;;;18.80;1.00;;;;;;5059209;28;20408;-69